createdAt,value
2019-03-11T00:00:44.059Z,99.99
2019-03-11T00:01:44.039Z,99.99
2019-03-11T00:02:44.027Z,99.99
2019-03-11T00:03:44.024Z,99.99
2019-03-11T00:04:44.013Z,99.99
2019-03-11T00:05:44.020Z,99.99
2019-03-11T00:06:44.025Z,99.99
2019-03-11T00:07:44.019Z,99.99
2019-03-11T00:08:43.961Z,99.99
2019-03-11T00:09:43.979Z,99.99
2019-03-11T00:10:43.942Z,99.99
2019-03-11T00:11:43.955Z,99.99
2019-03-11T00:12:43.946Z,99.99
2019-03-11T00:13:43.923Z,99.99
2019-03-11T00:14:43.911Z,99.99
2019-03-11T00:15:43.915Z,99.99
2019-03-11T00:16:43.881Z,99.99
2019-03-11T00:17:43.925Z,99.99
2019-03-11T00:18:43.858Z,99.99
2019-03-11T00:19:43.901Z,99.99
2019-03-11T00:20:43.850Z,99.99
2019-03-11T00:21:43.875Z,99.99
2019-03-11T00:22:43.831Z,99.99
2019-03-11T00:23:43.912Z,99.99
2019-03-11T00:24:43.797Z,99.99
2019-03-11T00:25:43.788Z,99.99
2019-03-11T00:26:43.782Z,99.99
2019-03-11T00:27:43.812Z,99.99
2019-03-11T00:28:43.764Z,99.99
2019-03-11T00:29:43.833Z,99.99
2019-03-11T00:30:43.732Z,99.99
2019-03-11T00:31:43.728Z,99.99
2019-03-11T00:32:43.722Z,99.99
2019-03-11T00:33:43.702Z,99.99
2019-03-11T00:34:43.695Z,99.99
2019-03-11T00:35:43.756Z,99.99
2019-03-11T00:36:43.678Z,99.99
2019-03-11T00:37:43.670Z,99.99
2019-03-11T00:38:43.652Z,99.99
2019-03-11T00:39:43.643Z,99.99
2019-03-11T00:40:43.632Z,99.99
2019-03-11T00:41:43.706Z,99.99
2019-03-11T00:42:43.614Z,99.99
2019-03-11T00:43:43.598Z,99.99
2019-03-11T00:44:43.594Z,99.99
2019-03-11T00:45:43.583Z,99.99
2019-03-11T00:46:43.569Z,99.99
2019-03-11T00:47:43.609Z,99.99
2019-03-11T00:48:43.544Z,99.99
2019-03-11T00:49:43.548Z,99.99
2019-03-11T00:50:43.544Z,99.99
2019-03-11T00:51:43.545Z,99.99
2019-03-11T00:52:43.697Z,99.99
2019-03-11T00:53:43.530Z,99.99
2019-03-11T00:54:43.532Z,99.96
2019-03-11T00:55:43.475Z,99.99
2019-03-11T00:56:43.467Z,99.99
2019-03-11T00:57:43.456Z,99.96
2019-03-11T00:58:43.444Z,99.99
2019-03-11T00:59:43.451Z,99.96
2019-03-11T01:00:43.453Z,99.96
2019-03-11T01:01:43.423Z,99.99
2019-03-11T01:02:43.455Z,99.99
2019-03-11T01:03:43.439Z,99.91
2019-03-11T01:04:43.377Z,99.99
2019-03-11T01:05:43.401Z,99.40
2019-03-11T01:06:43.446Z,99.50
2019-03-11T01:07:43.357Z,99.40
2019-03-11T01:08:43.348Z,99.81
2019-03-11T01:09:43.329Z,99.18
2019-03-11T01:10:43.326Z,99.76
2019-03-11T01:11:43.437Z,99.45
2019-03-11T01:12:43.304Z,99.60
2019-03-11T01:13:43.357Z,99.14
2019-03-11T01:14:43.416Z,99.24
2019-03-11T01:15:43.273Z,99.24
2019-03-11T01:16:43.315Z,99.35
2019-03-11T01:17:43.290Z,99.04
2019-03-11T01:18:43.253Z,99.35
2019-03-11T01:19:43.223Z,99.04
2019-03-11T01:20:43.266Z,99.14
2019-03-11T01:21:43.211Z,99.04
2019-03-11T01:22:43.210Z,99.14
2019-03-11T01:23:43.287Z,98.93
2019-03-11T01:24:43.234Z,98.93
2019-03-11T01:25:43.166Z,98.10
2019-03-11T01:26:43.208Z,98.52
2019-03-11T01:27:43.200Z,98.83
2019-03-11T01:28:43.133Z,99.04
2019-03-11T01:29:43.151Z,99.24
2019-03-11T01:30:43.135Z,98.62
2019-03-11T01:31:43.117Z,98.83
2019-03-11T01:32:43.157Z,98.83
2019-03-11T01:33:43.078Z,98.62
2019-03-11T01:34:43.073Z,99.24
2019-03-11T01:35:43.087Z,99.04
2019-03-11T01:36:43.045Z,99.14
2019-03-11T01:37:43.053Z,99.24
2019-03-11T01:38:43.089Z,98.83
2019-03-11T01:39:43.107Z,98.52
2019-03-11T01:40:43.006Z,99.14
2019-03-11T01:41:42.997Z,99.24
2019-03-11T01:42:43.011Z,99.14
2019-03-11T01:43:42.976Z,99.14
2019-03-11T01:44:42.969Z,99.14
2019-03-11T01:45:43.042Z,99.14
2019-03-11T01:46:42.954Z,98.77
2019-03-11T01:47:42.931Z,98.87
2019-03-11T01:48:43.016Z,99.14
2019-03-11T01:49:42.916Z,98.66
2019-03-11T01:50:42.902Z,98.66
2019-03-11T01:51:42.942Z,99.14
2019-03-11T01:52:42.997Z,98.62
2019-03-11T01:53:42.905Z,98.87
2019-03-11T01:54:42.907Z,98.66
2019-03-11T01:55:42.851Z,98.87
2019-03-11T01:56:42.891Z,99.24
2019-03-11T01:57:42.884Z,98.77
2019-03-11T01:58:42.846Z,98.77
2019-03-11T01:59:42.808Z,98.87
2019-03-11T02:00:42.827Z,99.71
2019-03-11T02:01:42.815Z,99.60
2019-03-11T02:02:42.782Z,99.40
2019-03-11T02:03:42.780Z,99.60
2019-03-11T02:04:42.775Z,99.18
2019-03-11T02:05:42.753Z,99.08
2019-03-11T02:06:42.808Z,98.97
2019-03-11T02:07:42.768Z,99.44
2019-03-11T02:08:42.738Z,98.87
2019-03-11T02:09:42.706Z,99.44
2019-03-11T02:10:42.727Z,99.40
2019-03-11T02:11:42.686Z,99.18
2019-03-11T02:12:42.705Z,98.66
2019-03-11T02:13:42.677Z,99.40
2019-03-11T02:14:42.655Z,98.87
2019-03-11T02:15:42.656Z,99.40
2019-03-11T02:16:42.669Z,99.40
2019-03-11T02:17:42.629Z,99.08
2019-03-11T02:18:42.652Z,99.40
2019-03-11T02:19:42.614Z,99.60
2019-03-11T02:20:42.603Z,99.08
2019-03-11T02:21:42.585Z,99.71
2019-03-11T02:22:42.617Z,99.71
2019-03-11T02:23:42.592Z,99.29
2019-03-11T02:24:42.577Z,99.60
2019-03-11T02:25:42.556Z,99.71
2019-03-11T02:26:42.552Z,99.08
2019-03-11T02:27:42.567Z,99.18
2019-03-11T02:28:42.515Z,99.29
2019-03-11T02:29:42.496Z,99.18
2019-03-11T02:30:42.497Z,98.66
2019-03-11T02:31:42.514Z,98.56
2019-03-11T02:32:42.469Z,99.08
2019-03-11T02:33:42.477Z,98.77
2019-03-11T02:34:42.446Z,98.97
2019-03-11T02:35:42.437Z,98.56
2019-03-11T02:36:42.455Z,98.77
2019-03-11T02:37:42.425Z,98.66
2019-03-11T02:38:42.460Z,98.77
2019-03-11T02:39:42.404Z,98.77
2019-03-11T02:40:42.389Z,99.18
2019-03-11T02:41:42.381Z,99.29
2019-03-11T02:42:42.378Z,98.25
2019-03-11T02:43:42.374Z,98.66
2019-03-11T02:44:42.425Z,99.29
2019-03-11T02:45:42.340Z,99.18
2019-03-11T02:46:42.326Z,98.87
2019-03-11T02:47:42.331Z,99.08
2019-03-11T02:48:42.320Z,99.40
2019-03-11T02:49:43.998Z,98.56
2019-03-11T02:50:42.330Z,98.25
2019-03-11T02:51:42.277Z,98.35
2019-03-11T02:52:42.269Z,98.35
2019-03-11T02:53:42.272Z,98.35
2019-03-11T02:54:42.250Z,97.52
2019-03-11T02:55:42.238Z,97.94
2019-03-11T02:56:42.264Z,98.14
2019-03-11T02:57:42.232Z,98.35
2019-03-11T02:58:42.209Z,98.66
2019-03-11T02:59:42.206Z,98.39
2019-03-11T03:00:42.198Z,98.56
2019-03-11T03:01:42.193Z,98.66
2019-03-11T03:02:42.203Z,98.66
2019-03-11T03:03:42.181Z,98.66
2019-03-11T03:04:42.150Z,98.66
2019-03-11T03:05:42.140Z,98.39
2019-03-11T03:06:42.142Z,98.56
2019-03-11T03:07:42.125Z,98.14
2019-03-11T03:08:42.105Z,97.72
2019-03-11T03:09:42.167Z,97.83
2019-03-11T03:10:42.114Z,98.25
2019-03-11T03:11:42.077Z,98.66
2019-03-11T03:12:42.057Z,98.82
2019-03-11T03:13:42.083Z,98.77
2019-03-11T03:14:42.036Z,98.71
2019-03-11T03:15:42.025Z,98.71
2019-03-11T03:16:42.022Z,98.39
2019-03-11T03:17:42.046Z,97.88
2019-03-11T03:18:42.010Z,97.72
2019-03-11T03:19:42.036Z,96.79
2019-03-11T03:20:41.984Z,97.20
2019-03-11T03:21:41.967Z,97.00
2019-03-11T03:22:41.961Z,97.52
2019-03-11T03:23:41.970Z,97.62
2019-03-11T03:24:42.002Z,98.08
2019-03-11T03:25:41.976Z,98.56
2019-03-11T03:26:41.921Z,98.35
2019-03-11T03:27:41.967Z,98.35
2019-03-11T03:28:41.931Z,98.97
2019-03-11T03:29:41.921Z,98.87
2019-03-11T03:30:41.902Z,98.77
2019-03-11T03:31:42.128Z,99.44
2019-03-11T03:32:42.005Z,98.92
2019-03-11T03:33:41.917Z,98.60
2019-03-11T03:34:41.892Z,98.97
2019-03-11T03:35:41.828Z,97.98
2019-03-11T03:36:41.815Z,97.83
2019-03-11T03:37:41.857Z,98.08
2019-03-11T03:38:41.809Z,98.14
2019-03-11T03:39:41.779Z,98.29
2019-03-11T03:40:41.812Z,98.66
2019-03-11T03:41:41.762Z,98.60
2019-03-11T03:42:41.867Z,98.82
2019-03-11T03:43:41.745Z,99.02
2019-03-11T03:44:41.740Z,98.71
2019-03-11T03:45:41.753Z,98.39
2019-03-11T03:46:41.730Z,98.29
2019-03-11T03:47:41.707Z,98.19
2019-03-11T03:48:41.883Z,98.60
2019-03-11T03:49:41.677Z,98.23
2019-03-11T03:50:41.665Z,98.29
2019-03-11T03:51:41.657Z,98.60
2019-03-11T03:52:41.686Z,98.71
2019-03-11T03:53:41.635Z,99.02
2019-03-11T03:54:41.645Z,98.82
2019-03-11T03:55:41.631Z,98.50
2019-03-11T03:56:41.607Z,98.44
2019-03-11T03:57:41.641Z,98.34
2019-03-11T03:58:41.642Z,98.96
2019-03-11T03:59:41.601Z,98.65
2019-03-11T04:00:41.572Z,98.65
2019-03-11T04:01:41.567Z,98.49
2019-03-11T04:02:41.543Z,99.38
2019-03-11T04:03:41.530Z,98.80
2019-03-11T04:04:41.528Z,99.38
2019-03-11T04:05:41.587Z,99.59
2019-03-11T04:06:41.529Z,98.96
2019-03-11T04:07:41.496Z,99.32
2019-03-11T04:08:41.535Z,99.38
2019-03-11T04:09:41.604Z,99.27
2019-03-11T04:10:41.467Z,99.32
2019-03-11T04:11:41.499Z,98.80
2019-03-11T04:12:41.444Z,99.17
2019-03-11T04:13:41.478Z,99.38
2019-03-11T04:14:41.618Z,99.69
2019-03-11T04:15:41.484Z,99.43
2019-03-11T04:16:41.407Z,99.80
2019-03-11T04:17:41.444Z,99.95
2019-03-11T04:18:41.385Z,99.80
2019-03-11T04:19:41.414Z,99.90
2019-03-11T04:20:41.387Z,99.53
2019-03-11T04:21:41.410Z,99.32
2019-03-11T04:22:41.327Z,99.59
2019-03-11T04:23:41.330Z,99.69
2019-03-11T04:24:41.370Z,99.43
2019-03-11T04:25:41.345Z,99.38
2019-03-11T04:26:41.293Z,99.59
2019-03-11T04:27:41.289Z,99.59
2019-03-11T04:28:41.340Z,99.59
2019-03-11T04:29:41.296Z,99.59
2019-03-11T04:30:41.331Z,99.48
2019-03-11T04:31:41.279Z,99.13
2019-03-11T04:32:41.464Z,99.44
2019-03-11T04:33:41.266Z,98.71
2019-03-11T04:34:41.229Z,98.56
2019-03-11T04:35:41.276Z,97.88
2019-03-11T04:36:41.266Z,98.08
2019-03-11T04:37:41.221Z,97.56
2019-03-11T04:38:41.198Z,97.56
2019-03-11T04:39:41.425Z,97.67
2019-03-11T04:40:41.157Z,97.35
2019-03-11T04:41:41.143Z,97.67
2019-03-11T04:42:41.170Z,97.35
2019-03-11T04:43:41.161Z,96.83
2019-03-11T04:44:41.225Z,97.25
2019-03-11T04:45:41.312Z,97.35
2019-03-11T04:46:41.111Z,96.83
2019-03-11T04:47:41.090Z,96.89
2019-03-11T04:48:41.142Z,96.94
2019-03-11T04:49:41.071Z,96.62
2019-03-11T04:50:41.054Z,97.00
2019-03-11T04:51:41.059Z,96.89
2019-03-11T04:52:41.017Z,96.52
2019-03-11T04:53:41.010Z,97.00
2019-03-11T04:54:41.034Z,96.89
2019-03-11T04:55:40.983Z,96.94
2019-03-11T04:56:40.992Z,95.79
2019-03-11T04:57:40.971Z,95.37
2019-03-11T04:58:40.955Z,96.00
2019-03-11T04:59:40.952Z,95.37
2019-03-11T05:00:40.971Z,95.27
2019-03-11T05:01:40.933Z,94.96
2019-03-11T05:02:40.981Z,96.11
2019-03-11T05:03:40.909Z,95.79
2019-03-11T05:04:40.891Z,96.00
2019-03-11T05:05:40.936Z,96.00
2019-03-11T05:06:40.948Z,96.15
2019-03-11T05:07:40.864Z,95.73
2019-03-11T05:08:40.889Z,97.09
2019-03-11T05:09:40.838Z,96.98
2019-03-11T05:10:40.838Z,97.04
2019-03-11T05:11:40.852Z,97.40
2019-03-11T05:12:40.838Z,97.40
2019-03-11T05:13:40.830Z,96.88
2019-03-11T05:14:40.815Z,97.25
2019-03-11T05:15:40.895Z,97.40
2019-03-11T05:16:40.771Z,97.40
2019-03-11T05:17:40.763Z,96.83
2019-03-11T05:18:40.758Z,97.09
2019-03-11T05:19:40.764Z,96.88
2019-03-11T05:20:40.749Z,96.98
2019-03-11T05:21:40.725Z,96.67
2019-03-11T05:22:40.773Z,97.19
2019-03-11T05:23:40.707Z,97.46
2019-03-11T05:24:40.722Z,96.73
2019-03-11T05:25:40.672Z,97.14
2019-03-11T05:26:40.673Z,96.83
2019-03-11T05:27:40.667Z,96.62
2019-03-11T05:28:40.645Z,96.98
2019-03-11T05:29:40.747Z,97.30
2019-03-11T05:30:40.627Z,97.14
2019-03-11T05:31:40.709Z,97.04
2019-03-11T05:32:40.645Z,96.67
2019-03-11T05:33:40.632Z,96.98
2019-03-11T05:34:40.681Z,96.36
2019-03-11T05:35:40.579Z,96.56
2019-03-11T05:36:40.568Z,97.09
2019-03-11T05:37:40.558Z,97.09
2019-03-11T05:38:40.602Z,97.19
2019-03-11T05:39:40.562Z,97.50
2019-03-11T05:40:40.534Z,96.98
2019-03-11T05:41:40.569Z,97.61
2019-03-11T05:42:40.522Z,96.98
2019-03-11T05:43:40.569Z,96.88
2019-03-11T05:44:40.523Z,97.61
2019-03-11T05:45:40.605Z,97.40
2019-03-11T05:46:40.490Z,97.40
2019-03-11T05:47:40.502Z,97.81
2019-03-11T05:48:40.483Z,97.71
2019-03-11T05:49:40.490Z,97.40
2019-03-11T05:50:40.423Z,97.40
2019-03-11T05:51:40.426Z,96.94
2019-03-11T05:52:40.400Z,97.40
2019-03-11T05:53:40.407Z,97.40
2019-03-11T05:54:40.383Z,96.88
2019-03-11T05:55:40.445Z,97.25
2019-03-11T05:56:40.368Z,96.88
2019-03-11T05:57:40.355Z,96.98
2019-03-11T05:58:40.367Z,97.50
2019-03-11T05:59:40.321Z,96.98
2019-03-11T06:00:40.353Z,97.30
2019-03-11T06:01:40.397Z,97.19
2019-03-11T06:02:40.459Z,96.88
2019-03-11T06:03:40.286Z,96.67
2019-03-11T06:04:40.283Z,97.19
2019-03-11T06:05:40.316Z,96.46
2019-03-11T06:06:40.295Z,96.88
2019-03-11T06:07:42.495Z,97.09
2019-03-11T06:08:40.234Z,97.50
2019-03-11T06:09:40.255Z,97.09
2019-03-11T06:10:40.211Z,96.98
2019-03-11T06:11:40.219Z,97.19
2019-03-11T06:12:40.241Z,97.13
2019-03-11T06:13:40.248Z,97.61
2019-03-11T06:14:40.179Z,97.55
2019-03-11T06:15:40.192Z,97.55
2019-03-11T06:16:40.150Z,98.28
2019-03-11T06:17:40.229Z,98.07
2019-03-11T06:18:40.201Z,97.97
2019-03-11T06:19:40.176Z,98.49
2019-03-11T06:20:40.105Z,98.80
2019-03-11T06:21:40.104Z,98.69
2019-03-11T06:22:40.110Z,99.01
2019-03-11T06:23:40.074Z,99.32
2019-03-11T06:24:40.069Z,98.80
2019-03-11T06:25:40.188Z,99.01
2019-03-11T06:26:40.036Z,99.32
2019-03-11T06:27:40.023Z,99.47
2019-03-11T06:28:40.020Z,98.95
2019-03-11T06:29:40.010Z,99.47
2019-03-11T06:30:40.032Z,99.73
2019-03-11T06:31:39.994Z,99.99
2019-03-11T06:32:39.993Z,99.93
2019-03-11T06:33:39.970Z,99.62
2019-03-11T06:34:39.985Z,99.62
2019-03-11T06:35:40.482Z,99.62
2019-03-11T06:36:40.105Z,99.99
2019-03-11T06:37:39.970Z,99.99
2019-03-11T06:38:40.020Z,99.99
2019-03-11T06:39:39.978Z,99.99
2019-03-11T06:40:40.284Z,99.99
2019-03-11T06:41:40.251Z,99.99
2019-03-11T06:42:39.885Z,99.99
2019-03-11T06:43:39.905Z,99.99
2019-03-11T06:44:39.933Z,99.99
2019-03-11T06:45:39.885Z,99.99
2019-03-11T06:46:39.858Z,99.99
2019-03-11T06:47:39.817Z,99.99
2019-03-11T06:48:39.854Z,99.99
2019-03-11T06:49:39.861Z,99.99
2019-03-11T06:50:39.866Z,99.99
2019-03-11T06:51:39.779Z,99.99
2019-03-11T06:52:39.861Z,99.99
2019-03-11T06:53:39.776Z,99.99
2019-03-11T06:54:39.743Z,99.99
2019-03-11T06:55:39.727Z,99.99
2019-03-11T06:56:39.715Z,99.99
2019-03-11T06:57:39.711Z,99.99
2019-03-11T06:58:39.720Z,99.99
2019-03-11T06:59:39.715Z,99.99
2019-03-11T07:00:39.676Z,99.99
2019-03-11T07:01:39.670Z,99.99
2019-03-11T07:02:39.676Z,99.99
2019-03-11T07:03:39.653Z,99.99
2019-03-11T07:04:39.648Z,99.99
2019-03-11T07:05:39.681Z,99.99
2019-03-11T07:06:39.614Z,99.99
2019-03-11T07:07:39.601Z,99.99
2019-03-11T07:08:39.595Z,99.99
2019-03-11T07:09:39.595Z,99.99
2019-03-11T07:10:39.827Z,99.99
2019-03-11T07:11:39.608Z,99.99
2019-03-11T07:12:39.557Z,99.99
2019-03-11T07:13:39.539Z,99.99
2019-03-11T07:14:39.544Z,99.99
2019-03-11T07:15:39.523Z,99.99
2019-03-11T07:16:39.539Z,99.99
2019-03-11T07:17:39.559Z,99.99
2019-03-11T07:18:39.497Z,99.99
2019-03-11T07:19:39.511Z,99.99
2019-03-11T07:20:39.468Z,99.99
2019-03-11T07:21:39.457Z,99.99
2019-03-11T07:22:39.467Z,99.99
2019-03-11T07:23:39.455Z,99.99
2019-03-11T07:24:39.431Z,99.99
2019-03-11T07:25:39.414Z,99.99
2019-03-11T07:26:39.407Z,99.99
2019-03-11T07:27:39.396Z,99.99
2019-03-11T07:28:39.402Z,99.99
2019-03-11T07:29:39.408Z,99.99
2019-03-11T07:30:39.383Z,99.99
2019-03-11T07:31:39.378Z,99.99
2019-03-11T07:32:39.345Z,99.99
2019-03-11T07:33:39.330Z,99.99
2019-03-11T07:34:39.345Z,99.99
2019-03-11T07:35:39.352Z,99.99
2019-03-11T07:36:39.298Z,99.99
2019-03-11T07:37:39.326Z,99.99
2019-03-11T07:38:39.284Z,99.99
2019-03-11T07:39:39.268Z,99.99
2019-03-11T07:40:39.276Z,99.99
2019-03-11T07:41:39.257Z,99.99
2019-03-11T07:42:39.233Z,99.99
2019-03-11T07:43:39.268Z,99.99
2019-03-11T07:44:39.230Z,99.99
2019-03-11T07:45:39.223Z,99.99
2019-03-11T07:46:39.195Z,99.99
2019-03-11T07:47:39.182Z,99.99
2019-03-11T07:48:39.172Z,99.99
2019-03-11T07:49:39.175Z,99.99
2019-03-11T07:50:39.156Z,99.99
2019-03-11T07:51:39.167Z,99.99
2019-03-11T07:52:39.164Z,99.99
2019-03-11T07:53:39.123Z,99.99
2019-03-11T07:54:39.109Z,99.99
2019-03-11T07:55:39.098Z,99.99
2019-03-11T07:56:39.086Z,99.99
2019-03-11T07:57:39.095Z,99.99
2019-03-11T07:58:39.075Z,99.99
2019-03-11T07:59:39.081Z,99.99
2019-03-11T08:00:39.048Z,99.99
2019-03-11T08:01:39.038Z,99.99
2019-03-11T08:02:39.114Z,99.99
2019-03-11T08:03:39.044Z,99.99
2019-03-11T08:04:39.002Z,99.99
2019-03-11T08:05:39.001Z,99.99
2019-03-11T08:06:39.125Z,99.99
2019-03-11T08:07:39.002Z,99.99
2019-03-11T08:08:38.961Z,99.99
2019-03-11T08:09:39.011Z,99.99
2019-03-11T08:10:38.941Z,99.99
2019-03-11T08:11:38.966Z,99.99
2019-03-11T08:12:38.933Z,99.99
2019-03-11T08:13:38.968Z,99.99
2019-03-11T08:14:38.907Z,99.99
2019-03-11T08:15:38.934Z,99.99
2019-03-11T08:16:38.995Z,99.99
2019-03-11T08:17:39.052Z,99.99
2019-03-11T08:18:38.893Z,99.99
2019-03-11T08:19:38.852Z,99.99
2019-03-11T08:20:38.842Z,99.99
2019-03-11T08:21:38.859Z,99.99
2019-03-11T08:22:38.855Z,99.99
2019-03-11T08:23:38.820Z,99.99
2019-03-11T08:24:38.814Z,99.99
2019-03-11T08:25:38.784Z,99.99
2019-03-11T08:26:38.793Z,99.99
2019-03-11T08:27:38.809Z,99.99
2019-03-11T08:28:38.827Z,99.99
2019-03-11T08:29:38.807Z,99.99
2019-03-11T08:30:38.771Z,99.99
2019-03-11T08:31:38.828Z,99.99
2019-03-11T08:32:38.823Z,99.99
2019-03-11T08:33:38.727Z,99.99
2019-03-11T08:34:38.698Z,99.99
2019-03-11T08:35:38.773Z,99.99
2019-03-11T08:36:38.694Z,99.99
2019-03-11T08:37:38.711Z,99.99
2019-03-11T08:38:38.698Z,99.99
2019-03-11T08:39:38.653Z,99.99
2019-03-11T08:40:38.672Z,99.99
2019-03-11T08:41:38.635Z,99.99
2019-03-11T08:42:38.646Z,99.99
2019-03-11T08:43:38.605Z,99.99
2019-03-11T08:44:38.593Z,99.99
2019-03-11T08:45:38.601Z,99.99
2019-03-11T08:46:38.597Z,99.99
2019-03-11T08:47:38.558Z,99.99
2019-03-11T08:48:38.896Z,99.99
2019-03-11T08:49:38.534Z,99.99
2019-03-11T08:50:38.521Z,99.99
2019-03-11T08:51:38.571Z,99.99
2019-03-11T08:52:38.502Z,99.99
2019-03-11T08:53:38.492Z,99.99
2019-03-11T08:54:38.481Z,99.99
2019-03-11T08:55:38.472Z,99.99
2019-03-11T08:56:38.467Z,99.99
2019-03-11T08:57:40.354Z,99.99
2019-03-11T08:58:38.439Z,99.99
2019-03-11T08:59:38.429Z,99.99
2019-03-11T09:00:38.421Z,99.99
2019-03-11T09:01:38.418Z,99.99
2019-03-11T09:02:38.404Z,99.99
2019-03-11T09:03:38.536Z,99.99
2019-03-11T09:04:38.375Z,99.60
2019-03-11T09:05:38.365Z,99.24
2019-03-11T09:06:38.354Z,99.50
2019-03-11T09:07:38.345Z,99.14
2019-03-11T09:08:38.339Z,98.83
2019-03-11T09:09:38.509Z,99.14
2019-03-11T09:10:38.317Z,99.24
2019-03-11T09:11:38.313Z,98.78
2019-03-11T09:12:38.295Z,98.47
2019-03-11T09:13:38.280Z,98.47
2019-03-11T09:14:38.273Z,97.74
2019-03-11T09:15:38.309Z,98.36
2019-03-11T09:16:38.255Z,98.26
2019-03-11T09:17:38.240Z,99.04
2019-03-11T09:18:38.272Z,98.83
2019-03-11T09:19:38.220Z,99.14
2019-03-11T09:20:38.210Z,99.45
2019-03-11T09:21:38.726Z,99.35
2019-03-11T09:22:38.201Z,99.35
2019-03-11T09:23:38.187Z,99.45
2019-03-11T09:24:38.166Z,99.71
2019-03-11T09:25:38.155Z,99.76
2019-03-11T09:26:38.206Z,99.50
2019-03-11T09:27:38.161Z,99.99
2019-03-11T09:28:38.125Z,99.91
2019-03-11T09:29:38.122Z,99.99
2019-03-11T09:30:38.155Z,99.60
2019-03-11T09:31:38.090Z,99.99
2019-03-11T09:32:38.161Z,99.71
2019-03-11T09:33:38.082Z,99.99
2019-03-11T09:34:38.065Z,99.87
2019-03-11T09:35:38.047Z,99.99
2019-03-11T09:36:38.045Z,99.99
2019-03-11T09:37:38.036Z,99.99
2019-03-11T09:38:38.011Z,99.82
2019-03-11T09:39:38.096Z,99.20
2019-03-11T09:40:38.003Z,99.10
2019-03-11T09:41:37.979Z,99.10
2019-03-11T09:42:37.975Z,99.20
2019-03-11T09:43:37.977Z,99.05
2019-03-11T09:44:37.965Z,99.30
2019-03-11T09:45:38.090Z,99.36
2019-03-11T09:46:37.931Z,99.15
2019-03-11T09:47:37.917Z,99.15
2019-03-11T09:48:37.927Z,99.21
2019-03-11T09:49:37.903Z,99.01
2019-03-11T09:50:37.897Z,99.11
2019-03-11T09:51:37.893Z,98.63
2019-03-11T09:52:37.888Z,97.70
2019-03-11T09:53:37.876Z,98.05
2019-03-11T09:54:37.845Z,97.70
2019-03-11T09:55:37.838Z,97.95
2019-03-11T09:56:43.300Z,98.26
2019-03-11T09:57:38.846Z,97.64
2019-03-11T09:58:37.841Z,97.85
2019-03-11T09:59:37.806Z,97.78
2019-03-11T10:00:37.789Z,98.41
2019-03-11T10:01:37.781Z,98.20
2019-03-11T10:02:37.775Z,98.31
2019-03-11T10:03:37.769Z,98.68
2019-03-11T10:04:37.745Z,98.78
2019-03-11T10:05:37.770Z,99.10
2019-03-11T10:06:37.740Z,99.10
2019-03-11T10:07:37.729Z,98.63
2019-03-11T10:08:37.705Z,98.80
2019-03-11T10:09:37.691Z,99.01
2019-03-11T10:10:37.688Z,98.54
2019-03-11T10:11:37.717Z,97.40
2019-03-11T10:12:37.664Z,97.09
2019-03-11T10:13:37.671Z,96.83
2019-03-11T10:14:37.650Z,97.14
2019-03-11T10:15:37.663Z,96.69
2019-03-11T10:16:37.631Z,96.85
2019-03-11T10:17:37.606Z,96.17
2019-03-11T10:18:37.625Z,95.44
2019-03-11T10:19:37.602Z,95.44
2019-03-11T10:20:37.576Z,95.81
2019-03-11T10:21:37.588Z,95.75
2019-03-11T10:22:37.554Z,95.75
2019-03-11T10:23:37.538Z,96.06
2019-03-11T10:24:37.599Z,95.96
2019-03-11T10:25:37.562Z,95.96
2019-03-11T10:26:37.524Z,96.11
2019-03-11T10:27:37.617Z,95.86
2019-03-11T10:28:37.493Z,95.34
2019-03-11T10:29:37.492Z,95.92
2019-03-11T10:30:37.527Z,95.40
2019-03-11T10:31:37.458Z,95.25
2019-03-11T10:32:37.451Z,95.31
2019-03-11T10:33:37.515Z,95.31
2019-03-11T10:34:37.423Z,93.80
2019-03-11T10:35:37.439Z,94.63
2019-03-11T10:36:37.536Z,94.73
2019-03-11T10:37:37.396Z,94.84
2019-03-11T10:38:37.382Z,94.84
2019-03-11T10:39:37.368Z,94.78
2019-03-11T10:40:37.389Z,95.56
2019-03-11T10:41:37.379Z,94.98
2019-03-11T10:42:37.403Z,94.98
2019-03-11T10:43:37.416Z,94.01
2019-03-11T10:44:37.331Z,94.01
2019-03-11T10:45:37.318Z,93.70
2019-03-11T10:46:37.296Z,94.32
2019-03-11T10:47:37.320Z,93.43
2019-03-11T10:48:37.677Z,94.37
2019-03-11T10:49:37.275Z,93.40
2019-03-11T10:50:37.257Z,92.11
2019-03-11T10:51:37.251Z,90.89
2019-03-11T10:52:37.295Z,89.56
2019-03-11T10:53:37.235Z,90.04
2019-03-11T10:54:37.384Z,89.46
2019-03-11T10:55:37.201Z,89.22
2019-03-11T10:56:37.192Z,90.04
2019-03-11T10:57:37.239Z,89.42
2019-03-11T10:58:37.167Z,89.32
2019-03-11T10:59:37.156Z,89.42
2019-03-11T11:00:37.193Z,88.43
2019-03-11T11:01:37.139Z,89.56
2019-03-11T11:02:37.148Z,89.40
2019-03-11T11:03:37.123Z,87.47
2019-03-11T11:04:37.130Z,89.29
2019-03-11T11:05:37.100Z,89.61
2019-03-11T11:06:37.087Z,88.67
2019-03-11T11:07:37.074Z,90.23
2019-03-11T11:08:37.092Z,89.46
2019-03-11T11:09:37.064Z,89.52
2019-03-11T11:10:37.080Z,89.73
2019-03-11T11:11:37.054Z,87.76
2019-03-11T11:12:37.027Z,89.61
2019-03-11T11:13:37.007Z,89.29
2019-03-11T11:14:37.018Z,89.19
2019-03-11T11:15:37.021Z,89.23
2019-03-11T11:16:36.994Z,89.17
2019-03-11T11:17:36.997Z,89.42
2019-03-11T11:18:36.959Z,91.28
2019-03-11T11:19:36.946Z,92.26
2019-03-11T11:20:36.951Z,91.22
2019-03-11T11:21:36.922Z,91.22
2019-03-11T11:22:36.917Z,90.81
2019-03-11T11:23:36.957Z,91.06
2019-03-11T11:24:36.901Z,92.05
2019-03-11T11:25:36.887Z,90.95
2019-03-11T11:26:36.898Z,92.30
2019-03-11T11:27:36.864Z,92.41
2019-03-11T11:28:36.861Z,91.89
2019-03-11T11:29:36.831Z,92.41
2019-03-11T11:30:36.878Z,91.10
2019-03-11T11:31:36.843Z,92.45
2019-03-11T11:32:36.822Z,92.66
2019-03-11T11:33:36.800Z,92.66
2019-03-11T11:34:36.789Z,92.86
2019-03-11T11:35:36.790Z,93.90
2019-03-11T11:36:36.796Z,91.86
2019-03-11T11:37:36.763Z,91.52
2019-03-11T11:38:36.764Z,91.55
2019-03-11T11:39:36.734Z,92.18
2019-03-11T11:40:36.729Z,92.45
2019-03-11T11:41:36.737Z,90.69
2019-03-11T11:42:36.752Z,91.10
2019-03-11T11:43:36.686Z,91.41
2019-03-11T11:44:36.676Z,91.78
2019-03-11T11:45:36.678Z,89.54
2019-03-11T11:46:36.655Z,90.85
2019-03-11T11:47:36.672Z,91.99
2019-03-11T11:48:36.676Z,92.10
2019-03-11T11:49:36.630Z,90.64
2019-03-11T11:50:36.630Z,91.16
2019-03-11T11:51:36.607Z,89.15
2019-03-11T11:52:36.599Z,90.91
2019-03-11T11:53:36.613Z,91.08
2019-03-11T11:54:36.593Z,91.39
2019-03-11T11:55:36.561Z,89.46
2019-03-11T11:56:36.550Z,91.12
2019-03-11T11:57:36.543Z,90.29
2019-03-11T11:58:36.528Z,90.81
2019-03-11T11:59:36.552Z,90.77
2019-03-11T12:00:36.523Z,89.61
2019-03-11T12:01:36.503Z,90.08
2019-03-11T12:02:36.510Z,89.11
2019-03-11T12:03:36.481Z,88.73
2019-03-11T12:04:36.475Z,90.66
2019-03-11T12:05:36.453Z,90.93
2019-03-11T12:06:36.499Z,89.79
2019-03-11T12:07:36.441Z,87.82
2019-03-11T12:08:36.445Z,87.51
2019-03-11T12:09:36.410Z,89.48
2019-03-11T12:10:36.409Z,88.86
2019-03-11T12:11:36.389Z,89.75
2019-03-11T12:12:36.419Z,85.75
2019-03-11T12:13:36.397Z,89.23
2019-03-11T12:14:36.373Z,85.36
2019-03-11T12:15:36.348Z,86.09
2019-03-11T12:16:36.354Z,87.39
2019-03-11T12:17:36.331Z,86.42
2019-03-11T12:18:36.391Z,82.18
2019-03-11T12:19:36.319Z,83.70
2019-03-11T12:20:36.301Z,84.83
2019-03-11T12:21:36.297Z,80.84
2019-03-11T12:22:36.285Z,80.08
2019-03-11T12:23:45.852Z,79.87
2019-03-11T12:24:37.251Z,83.80
2019-03-11T12:25:36.241Z,82.15
2019-03-11T12:26:36.257Z,83.22
2019-03-11T12:27:36.237Z,83.94
2019-03-11T12:28:36.207Z,81.67
2019-03-11T12:29:36.219Z,82.66
2019-03-11T12:30:36.217Z,82.70
2019-03-11T12:31:36.209Z,83.84
2019-03-11T12:32:36.174Z,83.32
2019-03-11T12:33:36.156Z,83.73
2019-03-11T12:34:36.155Z,81.46
2019-03-11T12:35:36.132Z,79.02
2019-03-11T12:36:36.178Z,81.29
2019-03-11T12:37:36.111Z,81.12
2019-03-11T12:38:36.100Z,81.60
2019-03-11T12:39:36.105Z,84.39
2019-03-11T12:40:36.086Z,83.19
2019-03-11T12:41:36.096Z,84.84
2019-03-11T12:42:36.070Z,82.36
2019-03-11T12:43:36.070Z,79.50
2019-03-11T12:44:36.042Z,81.37
2019-03-11T12:45:36.051Z,80.95
2019-03-11T12:46:36.058Z,78.16
2019-03-11T12:47:36.005Z,79.60
2019-03-11T12:48:36.004Z,82.29
2019-03-11T12:49:36.020Z,82.88
2019-03-11T12:50:35.984Z,82.19
2019-03-11T12:51:35.983Z,79.81
2019-03-11T12:52:35.957Z,81.68